Time;durP1;ratioP1;P1;durP2;ratioP2;P2;SDS_P1;SDS_P2;PMS_P1;PMS_P2;Temp;Humidity;BMP_temperature;BMP_pressure;BME280_temperature;BME280_humidity;BME280_pressure;Samples;Min_cycle;Max_cycle;Signal;HPM_P1;HPM_P2
2022/08/26 00:00:47;;;;;;;11.10;6.13;;;;;;;22.14;86.72;100324.78;5029097;28;20029;-87
2022/08/26 00:03:15;;;;;;;9.63;5.65;;;;;;;22.08;86.64;100328.31;5030400;28;20041;-90
2022/08/26 00:05:41;;;;;;;7.50;5.60;;;;;;;22.00;86.95;100323.28;5033024;28;20072;-85
2022/08/26 00:08:12;;;;;;;6.10;5.47;;;;;;;21.96;86.90;100321.28;5049433;28;20033;-87
2022/08/26 00:10:38;;;;;;;5.70;5.18;;;;;;;21.91;87.74;100321.97;5033196;28;20392;-88
2022/08/26 00:13:09;;;;;;;8.50;6.00;;;;;;;21.82;88.24;100323.28;5049536;28;20043;-87
2022/08/26 00:15:35;;;;;;;8.40;5.80;;;;;;;21.71;88.48;100316.09;5032649;28;20069;-87
2022/08/26 00:18:36;;;;;;;7.57;6.55;;;;;;;21.70;88.70;100322.41;5032513;28;20037;-88
2022/08/26 00:21:03;;;;;;;8.75;5.50;;;;;;;21.73;88.40;100322.78;5007726;28;20045;-88
2022/08/26 00:23:50;;;;;;;6.70;5.60;;;;;;;21.70;89.00;100317.13;5013108;28;20025;-88
2022/08/26 00:26:25;;;;;;;7.57;5.97;;;;;;;21.71;88.35;100314.25;5013121;28;20033;-87
2022/08/26 00:29:06;;;;;;;6.38;5.55;;;;;;;21.72;88.71;100315.88;5021589;28;20029;-88
2022/08/26 00:31:41;;;;;;;6.95;6.00;;;;;;;21.77;88.34;100312.53;5032188;28;20045;-88
2022/08/26 00:34:15;;;;;;;7.05;5.75;;;;;;;21.75;88.62;100317.25;5032323;28;20048;-88
2022/08/26 00:36:42;;;;;;;8.00;5.65;;;;;;;21.75;88.22;100315.41;5032471;28;20029;-88
2022/08/26 00:39:13;;;;;;;6.63;5.38;;;;;;;21.71;89.13;100310.78;5031116;28;20033;-88
2022/08/26 00:41:49;;;;;;;7.55;6.03;;;;;;;21.66;89.26;100311.44;5032279;28;20021;-90
2022/08/26 00:44:15;;;;;;;;;;;;;;;21.54;90.69;100313.19;5050077;28;20066;-88
2022/08/26 00:46:47;;;;;;;9.35;6.28;;;;;;;21.70;87.86;100303.88;5049278;28;19920;-88
2022/08/26 00:49:41;;;;;;;6.18;5.28;;;;;;;22.26;84.53;100300.13;5050526;28;20041;-89
2022/08/26 00:52:10;;;;;;;7.93;5.95;;;;;;;22.42;84.03;100299.50;5050187;28;20068;-89
2022/08/26 00:54:44;;;;;;;6.15;5.32;;;;;;;22.37;83.86;100307.31;5050142;28;20112;-88
2022/08/26 00:57:14;;;;;;;8.25;5.60;;;;;;;22.59;82.63;100311.09;5049424;28;20041;-89
2022/08/26 00:59:39;;;;;;;5.88;5.00;;;;;;;22.66;82.20;100309.16;5049842;28;20037;-86
2022/08/26 01:02:05;;;;;;;6.20;5.10;;;;;;;22.62;82.33;100310.63;5032293;28;20035;-87
2022/08/26 01:04:33;;;;;;;7.53;5.70;;;;;;;22.59;83.17;100315.59;5032023;28;20043;-87
2022/08/26 01:07:00;;;;;;;5.95;5.45;;;;;;;22.51;83.33;100316.72;5033272;28;20069;-86
2022/08/26 01:09:27;;;;;;;9.30;5.55;;;;;;;22.34;84.82;100311.22;5031800;28;20083;-87
2022/08/26 01:11:56;;;;;;;6.95;5.82;;;;;;;22.15;85.37;100314.97;5032003;28;20467;-88
2022/08/26 01:14:32;;;;;;;7.68;5.82;;;;;;;22.00;85.89;100312.69;5047967;28;20088;-87
2022/08/26 01:17:04;;;;;;;9.27;5.78;;;;;;;22.02;85.24;100315.94;5031863;28;20051;-89
2022/08/26 01:19:50;;;;;;;6.40;5.03;;;;;;;22.05;84.65;100314.69;5049760;28;20446;-89
2022/08/26 01:22:29;;;;;;;7.53;5.38;;;;;;;22.13;84.49;100312.53;5031811;28;20099;-87
2022/08/26 01:25:00;;;;;;;8.50;4.97;;;;;;;22.16;84.71;100306.78;5048421;28;20039;-86
2022/08/26 01:27:29;;;;;;;7.32;4.57;;;;;;;22.20;84.81;100317.78;5032775;28;20487;-88
2022/08/26 01:29:56;;;;;;;7.53;5.00;;;;;;;22.19;84.81;100318.81;5048379;28;20385;-88
2022/08/26 01:32:33;;;;;;;7.25;5.20;;;;;;;22.16;85.19;100314.75;5047957;28;20033;-87
2022/08/26 01:34:59;;;;;;;7.95;3.83;;;;;;;22.16;85.23;100314.75;5049327;28;20651;-88
2022/08/26 01:37:31;;;;;;;6.80;4.70;;;;;;;22.16;85.62;100314.75;5031201;28;20112;-87
2022/08/26 01:39:57;;;;;;;6.82;4.18;;;;;;;22.17;85.62;100316.38;5049136;28;20067;-86
2022/08/26 01:42:24;;;;;;;7.00;4.25;;;;;;;22.12;86.04;100315.41;5030855;28;20057;-86
2022/08/26 01:44:56;;;;;;;9.80;5.05;;;;;;;22.06;86.26;100316.31;5047833;28;20033;-87
2022/08/26 01:47:26;;;;;;;11.73;5.25;;;;;;;22.03;86.44;100317.56;5030962;28;20225;-87
2022/08/26 01:49:54;;;;;;;5.97;4.15;;;;;;;22.01;86.99;100308.19;5030932;28;20035;-87
2022/08/26 01:52:24;;;;;;;9.20;4.18;;;;;;;21.97;87.41;100307.00;5029413;28;20342;-88
2022/08/26 01:54:52;;;;;;;7.68;5.13;;;;;;;21.90;87.33;100307.06;5048886;28;20617;-89
2022/08/26 01:57:19;;;;;;;5.25;4.28;;;;;;;21.87;87.85;100304.88;5046384;28;20081;-89
2022/08/26 01:59:45;;;;;;;6.55;4.72;;;;;;;21.79;88.15;100303.31;5047460;28;20044;-87
2022/08/26 02:02:11;;;;;;;8.57;5.05;;;;;;;21.75;88.53;100296.03;5049060;28;20104;-88
2022/08/26 02:04:46;;;;;;;10.40;4.68;;;;;;;21.71;89.00;100302.84;5048842;28;20151;-87
2022/08/26 02:07:20;;;;;;;6.22;4.63;;;;;;;21.63;89.49;100301.28;5030989;28;20047;-90
2022/08/26 02:09:46;;;;;;;6.35;4.35;;;;;;;21.65;89.04;100307.19;5029241;28;20049;-87
2022/08/26 02:12:17;;;;;;;13.27;4.88;;;;;;;21.58;89.99;100316.22;5030446;28;20036;-87
2022/08/26 02:14:49;;;;;;;10.88;4.28;;;;;;;21.43;90.86;100316.56;5029787;28;20543;-85
2022/08/26 02:17:16;;;;;;;8.35;5.43;;;;;;;21.30;91.63;100314.84;5048717;28;20039;-86
2022/08/26 02:19:47;;;;;;;5.78;4.68;;;;;;;21.19;92.93;100307.59;5030293;28;20516;-88
2022/08/26 02:22:16;;;;;;;5.60;4.55;;;;;;;21.16;92.99;100303.56;5047819;28;20033;-84
2022/08/26 02:24:50;;;;;;;9.68;4.63;;;;;;;21.16;92.67;100315.97;5030252;28;20040;-89
2022/08/26 02:27:18;;;;;;;7.93;4.57;;;;;;;21.16;92.68;100308.03;5049789;28;20540;-88
2022/08/26 02:29:53;;;;;;;8.02;4.68;;;;;;;21.11;93.08;100298.09;5030016;28;20032;-90
2022/08/26 02:32:19;;;;;;;7.85;4.07;;;;;;;21.07;93.81;100304.03;5028255;28;20028;-87
2022/08/26 02:34:45;;;;;;;6.93;5.13;;;;;;;21.05;93.56;100298.94;5049595;28;20028;-89
2022/08/26 02:37:18;;;;;;;5.65;4.95;;;;;;;21.05;94.00;100293.66;5030917;28;20021;-87
2022/08/26 02:39:44;;;;;;;8.98;4.72;;;;;;;21.13;92.92;100289.94;5048633;28;20032;-89
2022/08/26 02:42:10;;;;;;;6.35;4.75;;;;;;;21.19;92.10;100299.66;5029779;28;20113;-87
2022/08/26 02:44:36;;;;;;;8.48;4.95;;;;;;;21.24;91.72;100288.44;5030218;28;20058;-90
2022/08/26 02:47:02;;;;;;;6.57;4.47;;;;;;;21.27;91.84;100290.66;5028927;28;20037;-89
2022/08/26 02:49:29;;;;;;;7.53;4.28;;;;;;;21.29;91.61;100293.88;5047954;28;20039;-89
2022/08/26 02:51:55;;;;;;;7.13;4.22;;;;;;;21.25;92.27;100285.56;5046614;28;20078;-86
2022/08/26 02:54:21;;;;;;;7.55;5.07;;;;;;;21.25;91.89;100293.53;5029933;28;20040;-91
2022/08/26 02:56:47;;;;;;;6.25;4.03;;;;;;;21.21;92.61;100287.03;5048222;28;20029;-90
2022/08/26 02:59:13;;;;;;;5.75;4.35;;;;;;;21.12;93.30;100288.31;5028485;28;20460;-88
2022/08/26 03:01:39;;;;;;;10.30;5.22;;;;;;;21.05;94.16;100288.34;5325357;22;20065;-89
2022/08/26 03:04:08;;;;;;;4.60;4.13;;;;;;;20.96;94.29;100294.13;5009939;28;20471;-86
2022/08/26 03:06:33;;;;;;;6.97;4.57;;;;;;;20.87;95.03;100286.47;5010238;28;20026;-88
2022/08/26 03:08:59;;;;;;;7.43;5.18;;;;;;;20.78;95.68;100282.47;5028055;28;20079;-85
2022/08/26 03:11:24;;;;;;;6.55;5.03;;;;;;;20.69;95.93;100280.31;5028107;28;20495;-89
2022/08/26 03:13:50;;;;;;;5.53;4.80;;;;;;;20.65;96.61;100282.56;5027991;28;20118;-90
2022/08/26 03:16:16;;;;;;;7.72;5.43;;;;;;;20.61;97.02;100286.69;5009940;28;20056;-86
2022/08/26 03:18:42;;;;;;;5.95;4.72;;;;;;;20.56;97.28;100280.41;5027721;28;20360;-87
2022/08/26 03:21:10;;;;;;;12.38;6.30;;;;;;;20.53;97.25;100281.63;5027824;28;20037;-90
2022/08/26 03:23:37;;;;;;;9.65;6.35;;;;;;;20.46;97.53;100286.16;5009681;28;20033;-91
2022/08/26 03:26:03;;;;;;;6.70;6.00;;;;;;;20.44;97.63;100286.38;5009770;28;20040;-88
2022/08/26 03:28:28;;;;;;;6.70;5.90;;;;;;;20.37;98.07;100284.75;5009801;28;20075;-89
2022/08/26 03:30:55;;;;;;;7.00;6.30;;;;;;;20.36;97.92;100280.47;5027514;28;20477;-89
2022/08/26 03:33:21;;;;;;;6.60;6.00;;;;;;;20.30;98.22;100279.53;5027401;28;20026;-89
2022/08/26 03:35:47;;;;;;;8.05;6.07;;;;;;;20.29;97.95;100277.91;5027548;28;20029;-89
2022/08/26 03:38:13;;;;;;;11.45;5.80;;;;;;;20.25;98.02;100276.69;5030187;28;20072;-88
2022/08/26 03:40:42;;;;;;;10.13;6.40;;;;;;;20.18;98.21;100279.38;5013773;28;20037;-92
2022/08/26 03:43:12;;;;;;;10.05;6.80;;;;;;;20.16;98.71;100280.63;5013604;28;20026;-90
2022/08/26 03:45:39;;;;;;;12.25;6.80;;;;;;;20.15;98.74;100271.88;5013347;28;20033;-88
2022/08/26 03:48:05;;;;;;;9.25;6.43;;;;;;;20.17;98.54;100271.66;5031571;28;20024;-88
2022/08/26 03:50:31;;;;;;;6.78;5.22;;;;;;;20.15;98.89;100277.16;5013693;28;20719;-86
2022/08/26 03:52:56;;;;;;;13.48;6.55;;;;;;;20.14;98.89;100280.81;5013637;28;20033;-89
2022/08/26 03:55:24;;;;;;;9.70;6.75;;;;;;;20.09;99.08;100277.19;5014492;28;20424;-89
2022/08/26 03:57:50;;;;;;;8.73;6.50;;;;;;;20.05;99.40;100271.50;5013622;28;20472;-87
2022/08/26 04:00:16;;;;;;;10.02;6.57;;;;;;;20.00;99.72;100284.53;5013934;28;20033;-88
2022/08/26 04:02:44;;;;;;;8.27;5.68;;;;;;;19.97;100.00;100284.97;5013343;28;20045;-88
2022/08/26 04:05:12;;;;;;;9.43;6.40;;;;;;;19.94;100.00;100287.22;5013494;28;20108;-88
2022/08/26 04:07:38;;;;;;;13.15;6.43;;;;;;;19.91;100.00;100280.50;5031359;28;20022;-87
2022/08/26 04:10:05;;;;;;;8.57;6.38;;;;;;;19.88;100.00;100286.22;5031369;28;20076;-87
2022/08/26 04:12:30;;;;;;;9.98;6.95;;;;;;;19.82;100.00;100287.06;5031173;28;20089;-87
2022/08/26 04:14:56;;;;;;;8.93;6.65;;;;;;;19.84;100.00;100285.84;5012928;28;20025;-87
2022/08/26 04:17:24;;;;;;;8.60;5.97;;;;;;;19.83;100.00;100286.06;5031033;28;20056;-88
2022/08/26 04:19:52;;;;;;;10.15;6.18;;;;;;;19.84;100.00;100279.75;5030898;28;20106;-89
2022/08/26 04:22:17;;;;;;;11.07;6.50;;;;;;;19.81;100.00;100274.88;5031021;28;20148;-87
2022/08/26 04:24:44;;;;;;;11.25;6.93;;;;;;;19.80;100.00;100278.53;5031121;28;20108;-89
2022/08/26 04:27:09;;;;;;;9.45;5.97;;;;;;;19.77;100.00;100273.66;5012922;28;20037;-89
2022/08/26 04:29:35;;;;;;;10.82;7.60;;;;;;;19.77;100.00;100278.97;5019132;28;20099;-88
2022/08/26 04:32:01;;;;;;;11.23;7.90;;;;;;;19.78;100.00;100278.75;5038860;28;20052;-87
2022/08/26 04:34:27;;;;;;;9.27;6.75;;;;;;;19.80;100.00;100275.91;5020459;28;20493;-87
2022/08/26 04:36:54;;;;;;;7.88;6.35;;;;;;;20.02;99.11;100277.22;5020370;28;20079;-86
2022/08/26 04:39:20;;;;;;;10.13;6.40;;;;;;;20.25;97.97;100271.41;5039548;28;20017;-88
2022/08/26 04:41:58;;;;;;;10.43;6.93;;;;;;;20.31;97.91;100280.34;5022278;28;20040;-86
2022/08/26 04:44:26;;;;;;;10.65;6.93;;;;;;;20.29;97.79;100271.78;5031421;28;20488;-88
2022/08/26 04:46:52;;;;;;;12.40;6.93;;;;;;;20.23;98.46;100270.00;5013493;28;20044;-90
2022/08/26 04:49:19;;;;;;;10.45;7.80;;;;;;;20.13;98.74;100268.63;5017216;28;20388;-90
2022/08/26 04:51:45;;;;;;;9.70;7.40;;;;;;;20.07;98.66;100269.47;5017029;28;20125;-88
2022/08/26 04:54:12;;;;;;;9.07;6.93;;;;;;;20.12;98.88;100271.47;5033945;28;20040;-87
2022/08/26 04:56:41;;;;;;;12.95;7.30;;;;;;;20.16;98.13;100268.19;5015521;28;20029;-88
2022/08/26 04:59:10;;;;;;;12.07;7.38;;;;;;;20.24;97.74;100274.25;5012427;28;20304;-89
2022/08/26 05:01:37;;;;;;;8.98;7.05;;;;;;;20.33;97.10;100267.69;5011764;28;20449;-88
2022/08/26 05:04:04;;;;;;;13.50;7.53;;;;;;;20.41;97.11;100280.69;5012065;28;20059;-88
2022/08/26 05:06:30;;;;;;;9.02;6.35;;;;;;;20.45;96.16;100273.94;5030025;28;20032;-87
2022/08/26 05:08:56;;;;;;;9.10;6.53;;;;;;;20.51;95.30;100278.38;5012840;28;20272;-88
2022/08/26 05:11:21;;;;;;;7.28;6.40;;;;;;;20.60;94.67;100285.06;5013157;28;20047;-89
2022/08/26 05:13:47;;;;;;;8.13;6.30;;;;;;;20.65;93.97;100282.56;5031510;28;20376;-87
2022/08/26 05:16:14;;;;;;;10.43;6.78;;;;;;;20.76;93.36;100281.88;5011988;28;20057;-88
2022/08/26 05:18:42;;;;;;;9.20;7.40;;;;;;;20.88;92.48;100272.19;5011881;28;20037;-89
2022/08/26 05:21:14;;;;;;;18.90;8.25;;;;;;;20.94;92.39;100275.00;5029743;28;20033;-86
2022/08/26 05:23:57;;;;;;;13.88;7.55;;;;;;;21.06;91.99;100270.63;5034612;28;20552;-90
2022/08/26 05:26:25;;;;;;;11.77;7.03;;;;;;;21.18;92.12;100276.84;5013661;28;20030;-87
2022/08/26 05:28:51;;;;;;;13.43;7.10;;;;;;;21.25;92.22;100276.81;5015927;28;20037;-87
2022/08/26 05:31:25;;;;;;;9.80;6.57;;;;;;;21.32;92.36;100270.41;5011842;28;20029;-90
2022/08/26 05:33:51;;;;;;;12.93;6.97;;;;;;;21.44;92.47;100267.84;5029588;28;20041;-88
2022/08/26 05:36:21;;;;;;;13.85;7.47;;;;;;;21.51;91.55;100260.63;5012253;28;20028;-88
2022/08/26 05:38:47;;;;;;;12.07;8.32;;;;;;;21.58;91.36;100271.16;5012274;28;20034;-88
2022/08/26 05:41:28;;;;;;;13.80;7.80;;;;;;;21.63;91.52;100273.97;5012713;28;20022;-90
2022/08/26 05:43:55;;;;;;;9.55;6.80;;;;;;;21.75;89.72;100264.22;5012097;28;20084;-89
2022/08/26 05:46:21;;;;;;;9.52;6.82;;;;;;;21.87;89.32;100270.38;5010716;28;20036;-89
2022/08/26 05:48:46;;;;;;;14.50;8.27;;;;;;;21.95;90.07;100266.63;5026540;22;20054;-68
2022/08/26 05:51:12;;;;;;;7.68;6.43;;;;;;;21.94;89.99;100265.00;5009521;28;20022;-68
2022/08/26 05:53:39;;;;;;;11.00;6.57;;;;;;;21.98;89.46;100263.53;5009358;28;20677;-69
2022/08/26 05:56:06;;;;;;;12.18;6.90;;;;;;;22.09;88.32;100262.81;5009807;28;20033;-66
2022/08/26 05:58:34;;;;;;;14.00;7.13;;;;;;;22.22;87.60;100264.44;5007159;28;20036;-63
2022/08/26 06:01:01;;;;;;;13.90;6.50;;;;;;;22.30;87.69;100270.25;5007898;28;20432;-65
2022/08/26 06:03:27;;;;;;;8.35;5.70;;;;;;;22.39;87.36;100276.88;5009336;28;20041;-67
2022/08/26 06:05:54;;;;;;;11.52;6.18;;;;;;;22.46;86.88;100274.13;5009315;28;20032;-65
2022/08/26 06:08:20;;;;;;;11.00;5.85;;;;;;;22.53;86.43;100272.19;5008359;28;20069;-65
2022/08/26 06:10:45;;;;;;;9.93;5.53;;;;;;;22.70;85.00;100272.31;5000899;28;20100;-64
2022/08/26 06:13:12;;;;;;;6.38;4.75;;;;;;;22.87;83.79;100267.16;5008106;28;20037;-66
2022/08/26 06:15:45;;;;;;;9.38;5.43;;;;;;;22.93;84.27;100279.53;5009210;28;20054;-67
2022/08/26 06:18:13;;;;;;;8.20;5.07;;;;;;;23.01;82.78;100276.53;5008014;28;20496;-64
2022/08/26 06:20:42;;;;;;;7.10;4.85;;;;;;;23.10;82.71;100275.16;5007752;28;20117;-65
2022/08/26 06:25:56;;;;;;;9.65;5.60;;;;;;;23.28;82.42;100280.34;5008495;28;20049;-64
2022/08/26 06:28:23;;;;;;;9.25;4.93;;;;;;;23.35;81.33;100272.25;5006386;28;20034;-65
2022/08/26 06:30:49;;;;;;;7.53;4.90;;;;;;;23.39;81.61;100268.91;5008047;28;20092;-64
2022/08/26 06:33:15;;;;;;;7.05;4.82;;;;;;;23.45;80.77;100261.84;5006729;28;20041;-64
2022/08/26 06:35:41;;;;;;;8.55;4.63;;;;;;;23.52;81.15;100265.19;5007546;28;20037;-64
2022/08/26 06:38:08;;;;;;;8.88;5.05;;;;;;;23.65;80.92;100272.09;5007463;28;20037;-63
2022/08/26 06:40:47;;;;;;;8.15;5.53;;;;;;;23.75;80.93;100269.66;5003467;28;20049;-64
2022/08/26 06:43:16;;;;;;;9.13;5.32;;;;;;;23.79;80.68;100265.47;5007206;28;20034;-67
2022/08/26 06:45:44;;;;;;;6.07;4.68;;;;;;;23.81;81.21;100271.38;5005473;28;20042;-66
2022/08/26 06:48:11;;;;;;;9.05;4.45;;;;;;;23.86;81.38;100263.50;5006658;28;20522;-64
2022/08/26 06:50:36;;;;;;;10.18;4.00;;;;;;;23.90;80.71;100264.63;5008642;28;20519;-66
2022/08/26 06:53:02;;;;;;;8.90;4.18;;;;;;;23.98;80.32;100266.13;5007834;28;20033;-64
2022/08/26 06:55:27;;;;;;;8.98;4.65;;;;;;;24.02;80.53;100262.75;5007327;28;20036;-64
2022/08/26 06:57:53;;;;;;;8.57;4.40;;;;;;;24.10;80.21;100273.00;5008205;28;20117;-65
2022/08/26 07:00:22;;;;;;;8.68;4.70;;;;;;;24.18;79.50;100263.81;5005955;28;20037;-64
2022/08/26 07:02:47;;;;;;;10.85;5.07;;;;;;;24.31;79.29;100260.09;5008160;28;20033;-63
2022/08/26 07:05:13;;;;;;;13.68;5.07;;;;;;;24.43;79.33;100258.19;5007237;28;20022;-67
2022/08/26 07:07:39;;;;;;;6.50;4.93;;;;;;;24.53;78.60;100255.69;5006567;28;20473;-65
2022/08/26 07:10:07;;;;;;;7.38;5.07;;;;;;;24.64;78.40;100259.31;5007986;28;20062;-63
2022/08/26 07:12:34;;;;;;;8.40;5.20;;;;;;;24.68;78.46;100255.13;5005913;28;20500;-63
2022/08/26 07:15:00;;;;;;;12.95;4.65;;;;;;;24.76;78.38;100263.53;5003923;28;20029;-63
2022/08/26 07:17:25;;;;;;;7.75;5.10;;;;;;;24.93;78.44;100262.72;4991010;28;20034;-64
2022/08/26 07:19:51;;;;;;;9.40;4.47;;;;;;;25.03;78.11;100258.38;5006809;28;20022;-63
2022/08/26 07:22:17;;;;;;;7.93;5.18;;;;;;;25.18;77.71;100254.28;5005079;28;20034;-63
2022/08/26 07:24:43;;;;;;;7.60;4.85;;;;;;;25.34;77.87;100258.78;5004298;28;20026;-65
2022/08/26 07:27:13;;;;;;;6.55;5.25;;;;;;;25.47;77.21;100247.78;5006472;28;20116;-64
2022/08/26 07:29:41;;;;;;;6.50;4.97;;;;;;;25.60;76.38;100251.91;5006174;28;20030;-64
2022/08/26 07:32:08;;;;;;;9.98;5.43;;;;;;;25.67;75.84;100244.56;5004327;28;20037;-64
2022/08/26 07:34:36;;;;;;;8.45;5.65;;;;;;;25.78;75.27;100240.94;5007476;28;20058;-65
2022/08/26 07:37:03;;;;;;;5.82;4.53;;;;;;;25.88;74.39;100249.09;5004089;28;20543;-63
2022/08/26 07:39:30;;;;;;;9.15;5.78;;;;;;;25.96;73.46;100245.16;5005472;28;20038;-65
2022/08/26 07:41:56;;;;;;;9.50;5.15;;;;;;;26.05;72.98;100241.75;5003044;28;20060;-65
2022/08/26 07:44:22;;;;;;;10.65;5.63;;;;;;;26.12;72.51;100239.72;5004406;28;20466;-64
2022/08/26 07:46:49;;;;;;;6.20;5.07;;;;;;;26.24;72.15;100244.09;4998432;28;20065;-64
2022/08/26 07:49:16;;;;;;;7.00;4.65;;;;;;;26.32;71.60;100239.13;4997727;28;20523;-63
2022/08/26 07:51:42;;;;;;;7.82;4.45;;;;;;;26.37;70.48;100230.38;5003639;28;20021;-64
2022/08/26 07:54:08;;;;;;;8.65;4.93;;;;;;;26.35;69.25;100232.47;5002737;28;20505;-63
2022/08/26 07:56:34;;;;;;;6.38;5.13;;;;;;;26.47;69.16;100235.00;5006448;28;20053;-63
2022/08/26 07:59:00;;;;;;;8.50;5.03;;;;;;;26.62;68.35;100238.56;5005655;28;20362;-65
2022/08/26 08:01:25;;;;;;;8.60;5.20;;;;;;;26.67;67.77;100233.25;5005496;28;20132;-63
2022/08/26 08:03:52;;;;;;;9.85;5.70;;;;;;;26.74;67.76;100241.88;5007311;28;20593;-63
2022/08/26 08:06:24;;;;;;;8.60;5.82;;;;;;;26.92;66.57;100229.16;5006919;28;20038;-63
2022/08/26 08:08:50;;;;;;;8.02;5.90;;;;;;;26.99;65.50;100221.72;5005966;28;20053;-66
2022/08/26 08:11:16;;;;;;;8.07;5.82;;;;;;;27.06;65.23;100228.47;5005638;28;20030;-63
2022/08/26 08:13:42;;;;;;;11.15;5.20;;;;;;;27.16;64.68;100225.03;5003367;28;20030;-66
2022/08/26 08:16:07;;;;;;;7.82;5.25;;;;;;;27.22;64.61;100232.03;5004125;28;20045;-66
2022/08/26 08:18:33;;;;;;;11.43;5.30;;;;;;;27.33;64.28;100225.69;5000878;28;20025;-65
2022/08/26 08:21:02;;;;;;;19.92;5.68;;;;;;;27.42;63.42;100231.31;5005561;28;20153;-66
2022/08/26 08:23:29;;;;;;;9.68;5.72;;;;;;;27.61;62.97;100229.00;5004317;28;20042;-66
2022/08/26 08:26:03;;;;;;;7.70;5.78;;;;;;;27.66;62.31;100229.84;5004374;28;20139;-65
2022/08/26 08:28:29;;;;;;;9.33;6.23;;;;;;;27.84;62.25;100227.75;5006756;28;20397;-64
2022/08/26 08:30:55;;;;;;;12.18;6.05;;;;;;;27.95;62.15;100218.66;5009050;28;20295;-65
2022/08/26 08:33:21;;;;;;;10.10;6.57;;;;;;;28.01;61.67;100226.44;5008791;28;20026;-65
2022/08/26 08:35:47;;;;;;;9.32;5.82;;;;;;;28.02;61.87;100229.91;5008985;28;20030;-65
2022/08/26 08:38:12;;;;;;;7.38;5.95;;;;;;;27.94;61.72;100228.56;5006100;28;20079;-65
2022/08/26 08:40:40;;;;;;;10.10;6.50;;;;;;;28.05;61.91;100227.50;5006097;28;20091;-66
2022/08/26 08:43:10;;;;;;;8.13;5.65;;;;;;;28.05;61.23;100222.16;5008194;28;20378;-65
2022/08/26 08:45:51;;;;;;;10.35;6.65;;;;;;;28.05;62.76;100222.16;5006070;28;20064;-66
2022/08/26 08:48:16;;;;;;;10.63;6.45;;;;;;;28.04;61.55;100214.41;5015607;28;20041;-65
2022/08/26 08:50:45;;;;;;;12.77;6.28;;;;;;;28.06;61.12;100221.09;5028546;28;20028;-67
2022/08/26 08:53:16;;;;;;;8.13;6.32;;;;;;;28.03;60.86;100224.28;5028707;28;20392;-68
2022/08/26 08:55:58;;;;;;;7.28;6.47;;;;;;;27.96;59.91;100220.25;5026736;28;20361;-63
2022/08/26 08:58:38;;;;;;;6.43;5.30;;;;;;;28.00;59.88;100222.16;5025282;28;20037;-65
2022/08/26 09:01:07;;;;;;;10.18;6.32;;;;;;;27.98;60.46;100221.59;5025989;28;20033;-67
2022/08/26 09:03:49;;;;;;;9.15;6.07;;;;;;;28.10;60.53;100210.66;5024113;28;20029;-64
2022/08/26 09:06:19;;;;;;;11.63;5.93;;;;;;;28.09;60.06;100212.53;5018634;28;20053;-64
2022/08/26 09:08:47;;;;;;;8.73;6.15;;;;;;;27.95;58.87;100218.66;5008034;28;20776;-66
2022/08/26 09:11:14;;;;;;;10.40;6.78;;;;;;;27.79;59.49;100209.00;5027478;28;20063;-66
2022/08/26 09:13:46;;;;;;;10.85;5.70;;;;;;;27.76;58.84;100207.66;5026244;28;20204;-65
2022/08/26 09:16:45;;;;;;;8.93;6.55;;;;;;;27.90;59.15;100205.25;5021259;28;20033;-65
2022/08/26 09:19:27;;;;;;;10.73;7.45;;;;;;;27.76;56.83;100215.69;5010335;28;20041;-67
2022/08/26 09:21:57;;;;;;;8.98;6.70;;;;;;;27.53;57.66;100208.06;5029472;28;20041;-66
2022/08/26 09:24:23;;;;;;;9.80;6.90;;;;;;;27.35;58.17;100202.16;5028256;28;20684;-64
2022/08/26 09:26:51;;;;;;;9.18;6.68;;;;;;;27.30;58.58;100202.13;5026251;28;20025;-63
2022/08/26 09:29:24;;;;;;;10.25;6.47;;;;;;;27.31;58.69;100209.09;5010674;28;20044;-63
2022/08/26 09:31:52;;;;;;;10.05;7.07;;;;;;;27.32;58.84;100200.00;5028875;28;20380;-63
2022/08/26 09:34:20;;;;;;;9.68;6.22;;;;;;;27.36;58.25;100195.72;5027664;28;20044;-65
2022/08/26 09:36:55;;;;;;;10.05;7.13;;;;;;;27.40;58.66;100196.00;5027244;28;20037;-63
2022/08/26 09:39:25;;;;;;;6.97;6.20;;;;;;;27.57;56.97;100199.25;5026478;28;20025;-66
2022/08/26 09:42:09;;;;;;;10.63;6.72;;;;;;;27.94;53.06;100198.31;5016026;28;20032;-63
2022/08/26 09:44:55;;;;;;;12.25;7.32;;;;;;;27.85;53.88;100195.38;5027995;28;20038;-65
2022/08/26 09:47:32;;;;;;;7.80;6.60;;;;;;;27.69;53.09;100196.41;5006883;28;20037;-63
2022/08/26 09:50:17;;;;;;;8.60;6.63;;;;;;;27.78;55.11;100197.50;5025673;28;20055;-64
2022/08/26 09:52:43;;;;;;;7.20;6.30;;;;;;;27.78;56.12;100192.13;5006054;28;20499;-65
2022/08/26 09:55:13;;;;;;;9.27;7.05;;;;;;;27.70;56.67;100187.31;5026920;28;20033;-64
2022/08/26 09:57:51;;;;;;;10.70;6.55;;;;;;;27.64;57.15;100191.03;5025225;28;20373;-64
2022/08/26 10:00:28;;;;;;;8.90;6.65;;;;;;;27.69;57.68;100186.50;5026824;28;20041;-63
2022/08/26 10:02:56;;;;;;;10.30;7.32;;;;;;;27.77;57.74;100173.66;5007258;28;20048;-66
2022/08/26 10:05:45;;;;;;;11.27;7.78;;;;;;;27.88;57.02;100184.13;5025150;28;20029;-64
2022/08/26 10:08:41;;;;;;;11.93;6.78;;;;;;;27.96;57.05;100177.44;5024271;28;20037;-66
2022/08/26 10:11:21;;;;;;;12.23;6.90;;;;;;;28.00;56.44;100168.59;5013343;28;20045;-64
2022/08/26 10:13:54;;;;;;;19.42;6.80;;;;;;;28.31;53.75;100169.47;5027165;28;20033;-65
2022/08/26 10:16:26;;;;;;;11.05;6.78;;;;;;;28.55;51.01;100153.59;5027120;28;20033;-65
2022/08/26 10:18:58;;;;;;;8.65;6.22;;;;;;;28.56;50.87;100159.78;5025342;28;20047;-65
2022/08/26 10:21:31;;;;;;;8.98;5.95;;;;;;;28.61;51.68;100157.88;5026600;28;20029;-65
2022/08/26 10:24:00;;;;;;;7.53;6.28;;;;;;;28.40;53.34;100154.44;5028263;28;20034;-65
2022/08/26 10:26:37;;;;;;;10.75;7.40;;;;;;;28.59;53.06;100148.50;5026336;28;20029;-65
2022/08/26 10:29:15;;;;;;;11.23;6.57;;;;;;;28.67;52.61;100146.09;5026572;28;20083;-67
2022/08/26 10:31:57;;;;;;;9.07;6.35;;;;;;;28.58;52.39;100152.25;5027008;28;20025;-67
2022/08/26 10:34:23;;;;;;;10.82;6.22;;;;;;;28.57;53.16;100150.66;5027750;28;20033;-66
2022/08/26 10:37:11;;;;;;;11.43;6.97;;;;;;;28.45;53.83;100152.81;5004704;28;20460;-65
2022/08/26 10:40:01;;;;;;;7.43;6.18;;;;;;;28.66;52.07;100149.84;5015590;28;20033;-66
2022/08/26 10:42:41;;;;;;;8.00;6.43;;;;;;;28.62;53.18;100138.06;5024831;28;20099;-66
2022/08/26 10:45:12;;;;;;;9.07;6.47;;;;;;;28.57;53.66;100143.41;5010260;28;20473;-64
2022/08/26 10:47:52;;;;;;;7.80;7.00;;;;;;;28.56;54.17;100141.81;5010623;28;20034;-67
2022/08/26 10:50:21;;;;;;;8.02;6.35;;;;;;;28.72;54.17;100139.91;5021920;28;20385;-66
2022/08/26 10:52:49;;;;;;;8.57;6.53;;;;;;;28.80;53.79;100147.41;5023098;28;20124;-67
2022/08/26 10:55:39;;;;;;;11.27;6.82;;;;;;;29.10;53.14;100143.84;5027584;28;20095;-67
2022/08/26 10:58:30;;;;;;;8.82;7.38;;;;;;;29.15;51.55;100132.28;5023698;28;20040;-66
2022/08/26 11:04:15;;;;;;;7.22;5.18;;;;;;;29.12;49.90;100120.22;5022139;28;20114;-67
2022/08/26 11:06:44;;;;;;;6.32;5.57;;;;;;;29.17;51.02;100117.53;5027233;28;20030;-66
2022/08/26 11:09:31;;;;;;;9.65;6.05;;;;;;;29.16;50.46;100121.28;5008473;28;20132;-65
2022/08/26 11:11:57;;;;;;;8.70;5.60;;;;;;;29.41;49.26;100117.66;5023478;28;20139;-67
2022/08/26 11:14:22;;;;;;;9.75;5.25;;;;;;;29.49;48.75;100121.66;5010540;28;20029;-65
2022/08/26 11:16:52;;;;;;;9.50;5.80;;;;;;;29.37;49.06;100120.06;5010735;28;20026;-65
2022/08/26 11:19:52;;;;;;;8.38;5.68;;;;;;;29.48;49.46;100120.84;5023255;28;20661;-65
2022/08/26 11:22:31;;;;;;;9.32;5.15;;;;;;;29.71;48.13;100116.69;4998506;28;20047;-65
2022/08/26 11:24:57;;;;;;;5.75;5.15;;;;;;;29.74;49.62;100109.97;5025607;28;20038;-65
2022/08/26 11:27:23;;;;;;;8.00;5.32;;;;;;;29.79;50.17;100113.38;5005683;28;20029;-65
2022/08/26 11:30:04;;;;;;;6.70;5.57;;;;;;;29.78;49.28;100105.59;5026802;28;20037;-66
2022/08/26 11:32:32;;;;;;;7.40;5.22;;;;;;;29.74;47.51;100100.03;5025833;28;20219;-65
2022/08/26 11:35:24;;;;;;;7.63;5.72;;;;;;;29.69;47.65;100090.13;5025701;28;20148;-67
2022/08/26 11:37:57;;;;;;;6.68;4.45;;;;;;;29.66;46.50;100095.25;4991269;28;20141;-67
2022/08/26 11:40:38;;;;;;;7.07;5.22;;;;;;;29.87;44.75;100091.31;5023977;28;20078;-67